sensor_id;sensor_type;location;lat;lon;timestamp;pressure;altitude;pressure_sealevel;temperature;humidity
8286;BME280;4181;43.416;24.598;2023-02-12T00:02:23;101210.91;;;3.82;100.00
8286;BME280;4181;43.416;24.598;2023-02-12T00:04:49;101205.22;;;3.77;100.00
8286;BME280;4181;43.416;24.598;2023-02-12T00:07:14;101206.06;;;3.78;100.00
8286;BME280;4181;43.416;24.598;2023-02-12T00:09:40;101218.00;;;3.83;100.00
8286;BME280;4181;43.416;24.598;2023-02-12T00:12:06;101203.91;;;3.73;100.00
8286;BME280;4181;43.416;24.598;2023-02-12T00:14:31;101203.91;;;3.73;100.00
8286;BME280;4181;43.416;24.598;2023-02-12T00:16:58;101196.78;;;3.80;100.00
8286;BME280;4181;43.416;24.598;2023-02-12T00:19:24;101192.94;;;3.75;100.00
8286;BME280;4181;43.416;24.598;2023-02-12T00:21:49;101198.59;;;3.65;100.00
8286;BME280;4181;43.416;24.598;2023-02-12T00:24:15;101214.06;;;3.71;100.00
8286;BME280;4181;43.416;24.598;2023-02-12T00:26:40;101192.47;;;3.71;100.00
8286;BME280;4181;43.416;24.598;2023-02-12T00:29:06;101197.84;;;3.71;100.00
8286;BME280;4181;43.416;24.598;2023-02-12T00:31:31;101185.31;;;3.56;100.00
8286;BME280;4181;43.416;24.598;2023-02-12T00:33:58;101193.19;;;3.65;100.00
8286;BME280;4181;43.416;24.598;2023-02-12T00:36:26;101207.91;;;3.77;100.00
8286;BME280;4181;43.416;24.598;2023-02-12T00:38:54;101206.22;;;3.62;100.00
8286;BME280;4181;43.416;24.598;2023-02-12T00:41:20;101213.44;;;3.61;100.00
8286;BME280;4181;43.416;24.598;2023-02-12T00:43:46;101225.56;;;3.65;100.00
8286;BME280;4181;43.416;24.598;2023-02-12T00:46:13;101201.75;;;3.69;100.00
8286;BME280;4181;43.416;24.598;2023-02-12T00:48:38;101217.22;;;3.75;100.00
8286;BME280;4181;43.416;24.598;2023-02-12T00:51:04;101193.72;;;3.61;100.00
8286;BME280;4181;43.416;24.598;2023-02-12T00:53:31;101214.53;;;3.75;100.00
8286;BME280;4181;43.416;24.598;2023-02-12T00:55:57;101214.06;;;3.71;100.00
8286;BME280;4181;43.416;24.598;2023-02-12T00:58:22;101213.38;;;3.69;100.00
8286;BME280;4181;43.416;24.598;2023-02-12T01:00:48;101209.53;;;3.64;100.00
8286;BME280;4181;43.416;24.598;2023-02-12T01:03:14;101201.81;;;3.61;100.00
8286;BME280;4181;43.416;24.598;2023-02-12T01:05:40;101189.47;;;3.66;100.00
8286;BME280;4181;43.416;24.598;2023-02-12T01:08:05;101186.47;;;3.61;100.00
8286;BME280;4181;43.416;24.598;2023-02-12T01:10:31;101175.38;;;3.56;100.00
8286;BME280;4181;43.416;24.598;2023-02-12T01:12:57;101167.88;;;3.66;100.00
8286;BME280;4181;43.416;24.598;2023-02-12T01:15:22;101130.00;;;3.37;100.00
8286;BME280;4181;43.416;24.598;2023-02-12T01:17:51;101153.72;;;3.64;100.00
8286;BME280;4181;43.416;24.598;2023-02-12T01:20:20;101151.31;;;3.69;100.00
8286;BME280;4181;43.416;24.598;2023-02-12T01:22:46;101142.94;;;3.64;100.00
8286;BME280;4181;43.416;24.598;2023-02-12T01:25:11;101150.22;;;3.78;100.00
8286;BME280;4181;43.416;24.598;2023-02-12T01:27:37;101132.41;;;3.69;100.00
8286;BME280;4181;43.416;24.598;2023-02-12T01:30:04;101145.41;;;3.88;100.00
8286;BME280;4181;43.416;24.598;2023-02-12T01:32:30;101132.19;;;3.94;100.00
8286;BME280;4181;43.416;24.598;2023-02-12T01:34:56;101124.28;;;3.92;100.00
8286;BME280;4181;43.416;24.598;2023-02-12T01:37:21;101121.41;;;3.94;100.00
8286;BME280;4181;43.416;24.598;2023-02-12T01:39:46;101106.78;;;3.88;100.00
8286;BME280;4181;43.416;24.598;2023-02-12T01:42:13;101136.66;;;4.16;100.00
8286;BME280;4181;43.416;24.598;2023-02-12T01:47:28;101132.69;;;4.12;100.00
8286;BME280;4181;43.416;24.598;2023-02-12T01:49:54;101127.47;;;4.25;100.00
8286;BME280;4181;43.416;24.598;2023-02-12T01:52:24;101123.66;;;4.34;100.00
8286;BME280;4181;43.416;24.598;2023-02-12T01:54:53;101133.34;;;4.28;100.00
8286;BME280;4181;43.416;24.598;2023-02-12T01:57:19;101120.69;;;4.29;100.00
8286;BME280;4181;43.416;24.598;2023-02-12T01:59:47;101131.66;;;4.27;100.00
8286;BME280;4181;43.416;24.598;2023-02-12T02:02:15;101134.38;;;4.27;100.00
8286;BME280;4181;43.416;24.598;2023-02-12T02:04:46;101140.22;;;4.31;100.00
8286;BME280;4181;43.416;24.598;2023-02-12T02:07:13;101143.09;;;4.29;100.00
8286;BME280;4181;43.416;24.598;2023-02-12T02:09:39;101148.97;;;4.33;100.00
8286;BME280;4181;43.416;24.598;2023-02-12T02:12:05;101130.16;;;4.25;100.00
8286;BME280;4181;43.416;24.598;2023-02-12T02:14:51;101148.97;;;4.33;100.00
8286;BME280;4181;43.416;24.598;2023-02-12T02:17:23;101146.75;;;4.36;100.00
8286;BME280;4181;43.416;24.598;2023-02-12T02:22:36;101152.06;;;4.30;100.00
8286;BME280;4181;43.416;24.598;2023-02-12T02:25:29;101156.06;;;4.34;100.00
8286;BME280;4181;43.416;24.598;2023-02-12T02:31:00;101148.41;;;4.23;100.00
8286;BME280;4181;43.416;24.598;2023-02-12T02:39:08;101149.72;;;4.27;100.00
8286;BME280;4181;43.416;24.598;2023-02-12T02:41:58;101133.81;;;4.17;100.00
8286;BME280;4181;43.416;24.598;2023-02-12T02:44:31;101143.84;;;4.23;100.00
8286;BME280;4181;43.416;24.598;2023-02-12T02:47:00;101154.19;;;4.20;100.00
8286;BME280;4181;43.416;24.598;2023-02-12T02:49:41;101138.38;;;4.17;100.00
8286;BME280;4181;43.416;24.598;2023-02-12T02:52:13;101156.25;;;4.32;100.00
8286;BME280;4181;43.416;24.598;2023-02-12T02:54:44;101144.50;;;4.25;100.00
8286;BME280;4181;43.416;24.598;2023-02-12T02:57:17;101149.81;;;4.19;100.00
8286;BME280;4181;43.416;24.598;2023-02-12T02:59:51;101153.09;;;4.29;100.00
8286;BME280;4181;43.416;24.598;2023-02-12T03:02:21;101144.50;;;4.25;100.00
8286;BME280;4181;43.416;24.598;2023-02-12T03:04:56;101156.59;;;4.29;100.00
8286;BME280;4181;43.416;24.598;2023-02-12T03:07:41;101156.69;;;4.36;100.00
8286;BME280;4181;43.416;24.598;2023-02-12T03:17:47;101141.25;;;4.44;100.00
8286;BME280;4181;43.416;24.598;2023-02-12T03:20:28;101152.91;;;4.45;100.00
8286;BME280;4181;43.416;24.598;2023-02-12T03:23:04;101141.91;;;4.46;100.00
8286;BME280;4181;43.416;24.598;2023-02-12T03:28:20;101143.22;;;4.50;100.00
8286;BME280;4181;43.416;24.598;2023-02-12T03:31:10;101151.50;;;4.49;100.00
8286;BME280;4181;43.416;24.598;2023-02-12T03:38:56;101116.00;;;4.52;100.00
8286;BME280;4181;43.416;24.598;2023-02-12T03:42:09;101126.44;;;4.55;100.00
8286;BME280;4181;43.416;24.598;2023-02-12T03:44:55;101126.69;;;4.60;100.00
8286;BME280;4181;43.416;24.598;2023-02-12T03:47:38;101135.19;;;4.57;100.00
8286;BME280;4181;43.416;24.598;2023-02-12T03:50:10;101138.44;;;4.52;100.00
8286;BME280;4181;43.416;24.598;2023-02-12T03:52:38;101124.22;;;4.44;100.00
8286;BME280;4181;43.416;24.598;2023-02-12T03:55:04;101132.78;;;4.47;100.00
8286;BME280;4181;43.416;24.598;2023-02-12T03:57:32;101134.06;;;4.51;100.00
8286;BME280;4181;43.416;24.598;2023-02-12T04:00:05;101142.56;;;4.48;100.00
8286;BME280;4181;43.416;24.598;2023-02-12T04:02:31;101151.78;;;4.54;100.00
8286;BME280;4181;43.416;24.598;2023-02-12T04:05:04;101152.78;;;4.53;100.00
8286;BME280;4181;43.416;24.598;2023-02-12T04:07:29;101118.25;;;4.34;100.00
8286;BME280;4181;43.416;24.598;2023-02-12T04:09:55;101128.50;;;4.24;100.00
8286;BME280;4181;43.416;24.598;2023-02-12T04:20:04;101172.19;;;4.42;100.00
8286;BME280;4181;43.416;24.598;2023-02-12T04:25:15;101172.47;;;4.47;100.00
8286;BME280;4181;43.416;24.598;2023-02-12T04:27:52;101163.41;;;4.40;100.00
8286;BME280;4181;43.416;24.598;2023-02-12T04:30:24;101175.91;;;4.55;100.00
8286;BME280;4181;43.416;24.598;2023-02-12T04:32:54;101180.84;;;4.37;100.00
8286;BME280;4181;43.416;24.598;2023-02-12T04:35:31;101183.84;;;4.42;100.00
8286;BME280;4181;43.416;24.598;2023-02-12T04:38:05;101194.00;;;4.40;100.00
8286;BME280;4181;43.416;24.598;2023-02-12T04:40:34;101187.94;;;4.38;100.00
8286;BME280;4181;43.416;24.598;2023-02-12T04:43:00;101191.81;;;4.36;100.00
8286;BME280;4181;43.416;24.598;2023-02-12T04:45:28;101192.38;;;4.46;100.00
8286;BME280;4181;43.416;24.598;2023-02-12T04:47:54;101184.66;;;4.43;100.00
8286;BME280;4181;43.416;24.598;2023-02-12T04:50:20;101190.91;;;4.43;100.00
8286;BME280;4181;43.416;24.598;2023-02-12T04:52:45;101200.78;;;4.51;100.00
8286;BME280;4181;43.416;24.598;2023-02-12T04:55:11;101201.16;;;4.48;100.00
8286;BME280;4181;43.416;24.598;2023-02-12T04:57:37;101198.16;;;4.43;100.00
8286;BME280;4181;43.416;24.598;2023-02-12T05:00:04;101190.34;;;4.33;100.00
8286;BME280;4181;43.416;24.598;2023-02-12T05:02:30;101194.25;;;4.31;100.00
8286;BME280;4181;43.416;24.598;2023-02-12T05:04:57;101213.56;;;4.42;100.00
8286;BME280;4181;43.416;24.598;2023-02-12T05:07:22;101209.91;;;4.50;100.00
8286;BME280;4181;43.416;24.598;2023-02-12T05:09:48;101216.06;;;4.44;100.00
8286;BME280;4181;43.416;24.598;2023-02-12T05:12:13;101219.88;;;4.49;100.00
8286;BME280;4181;43.416;24.598;2023-02-12T05:14:38;101195.94;;;4.46;100.00
8286;BME280;4181;43.416;24.598;2023-02-12T05:17:04;101181.00;;;4.36;100.00
8286;BME280;4181;43.416;24.598;2023-02-12T05:19:29;101196.97;;;4.45;100.00
8286;BME280;4181;43.416;24.598;2023-02-12T05:21:55;101223.44;;;4.50;100.00
8286;BME280;4181;43.416;24.598;2023-02-12T05:24:20;101222.09;;;4.46;100.00
8286;BME280;4181;43.416;24.598;2023-02-12T05:26:48;101199.22;;;4.42;100.00
8286;BME280;4181;43.416;24.598;2023-02-12T05:29:13;101213.47;;;4.50;100.00
8286;BME280;4181;43.416;24.598;2023-02-12T05:31:39;101216.66;;;4.54;100.00
8286;BME280;4181;43.416;24.598;2023-02-12T05:34:06;101219.78;;;4.43;100.00
8286;BME280;4181;43.416;24.598;2023-02-12T05:36:33;101209.91;;;4.35;100.00
8286;BME280;4181;43.416;24.598;2023-02-12T05:38:58;101230.97;;;4.40;100.00
8286;BME280;4181;43.416;24.598;2023-02-12T05:41:27;101227.97;;;4.35;100.00
8286;BME280;4181;43.416;24.598;2023-02-12T05:43:53;101208.69;;;4.23;100.00
8286;BME280;4181;43.416;24.598;2023-02-12T05:46:19;101249.88;;;4.54;100.00
8286;BME280;4181;43.416;24.598;2023-02-12T05:48:46;101247.47;;;4.45;100.00
8286;BME280;4181;43.416;24.598;2023-02-12T05:51:14;101238.50;;;4.44;100.00
8286;BME280;4181;43.416;24.598;2023-02-12T05:53:40;101254.56;;;4.60;100.00
8286;BME280;4181;43.416;24.598;2023-02-12T05:56:18;101250.34;;;4.58;100.00
8286;BME280;4181;43.416;24.598;2023-02-12T05:58:47;101265.47;;;4.67;100.00
8286;BME280;4181;43.416;24.598;2023-02-12T06:01:19;101263.44;;;4.69;100.00
8286;BME280;4181;43.416;24.598;2023-02-12T06:03:45;101270.50;;;4.70;100.00
8286;BME280;4181;43.416;24.598;2023-02-12T06:06:11;101263.06;;;4.72;100.00
8286;BME280;4181;43.416;24.598;2023-02-12T06:08:37;101280.94;;;4.73;100.00
8286;BME280;4181;43.416;24.598;2023-02-12T06:11:05;101272.94;;;4.79;100.00
8286;BME280;4181;43.416;24.598;2023-02-12T06:13:31;101261.28;;;4.79;100.00
8286;BME280;4181;43.416;24.598;2023-02-12T06:15:57;101274.81;;;4.79;100.00
8286;BME280;4181;43.416;24.598;2023-02-12T06:18:24;101272.84;;;4.73;100.00
8286;BME280;4181;43.416;24.598;2023-02-12T06:20:49;101269.94;;;4.60;100.00
8286;BME280;4181;43.416;24.598;2023-02-12T06:23:15;101288.63;;;4.84;100.00
8286;BME280;4181;43.416;24.598;2023-02-12T06:25:41;101280.22;;;4.79;100.00
8286;BME280;4181;43.416;24.598;2023-02-12T06:28:06;101266.22;;;4.75;100.00
8286;BME280;4181;43.416;24.598;2023-02-12T06:30:35;101284.09;;;4.91;100.00
8286;BME280;4181;43.416;24.598;2023-02-12T06:33:00;101278.06;;;4.89;100.00
8286;BME280;4181;43.416;24.598;2023-02-12T06:35:27;101297.56;;;4.99;100.00
8286;BME280;4181;43.416;24.598;2023-02-12T06:37:52;101281.97;;;4.86;100.00
8286;BME280;4181;43.416;24.598;2023-02-12T06:40:18;101298.94;;;4.95;100.00
8286;BME280;4181;43.416;24.598;2023-02-12T06:42:43;101296.88;;;5.11;100.00
8286;BME280;4181;43.416;24.598;2023-02-12T06:45:09;101307.81;;;5.03;100.00
8286;BME280;4181;43.416;24.598;2023-02-12T06:47:35;101303.88;;;5.06;100.00
8286;BME280;4181;43.416;24.598;2023-02-12T06:50:00;101289.59;;;4.97;100.00
8286;BME280;4181;43.416;24.598;2023-02-12T06:52:26;101285.44;;;4.95;100.00
8286;BME280;4181;43.416;24.598;2023-02-12T06:54:51;101276.66;;;4.93;100.00
8286;BME280;4181;43.416;24.598;2023-02-12T06:57:17;101272.56;;;4.97;100.00
8286;BME280;4181;43.416;24.598;2023-02-12T06:59:42;101296.22;;;5.24;100.00
8286;BME280;4181;43.416;24.598;2023-02-12T07:02:09;101303.28;;;5.40;100.00
8286;BME280;4181;43.416;24.598;2023-02-12T07:04:37;101305.78;;;5.56;100.00
8286;BME280;4181;43.416;24.598;2023-02-12T07:07:03;101305.56;;;5.72;100.00
8286;BME280;4181;43.416;24.598;2023-02-12T07:09:29;101281.63;;;5.75;100.00
8286;BME280;4181;43.416;24.598;2023-02-12T07:11:57;101304.38;;;6.16;100.00
8286;BME280;4181;43.416;24.598;2023-02-12T07:14:23;101297.25;;;6.36;100.00
8286;BME280;4181;43.416;24.598;2023-02-12T07:16:48;101299.97;;;6.36;100.00
8286;BME280;4181;43.416;24.598;2023-02-12T07:19:14;101311.22;;;6.61;100.00
8286;BME280;4181;43.416;24.598;2023-02-12T07:21:41;101316.31;;;6.71;100.00
8286;BME280;4181;43.416;24.598;2023-02-12T07:24:10;101287.59;;;6.55;100.00
8286;BME280;4181;43.416;24.598;2023-02-12T07:26:39;101318.34;;;6.62;100.00
8286;BME280;4181;43.416;24.598;2023-02-12T07:29:04;101302.25;;;6.61;100.00
8286;BME280;4181;43.416;24.598;2023-02-12T07:31:30;101309.06;;;6.50;100.00
8286;BME280;4181;43.416;24.598;2023-02-12T07:33:57;101298.91;;;6.59;100.00
8286;BME280;4181;43.416;24.598;2023-02-12T07:36:26;101297.09;;;6.66;100.00
8286;BME280;4181;43.416;24.598;2023-02-12T07:38:53;101306.19;;;6.86;100.00
8286;BME280;4181;43.416;24.598;2023-02-12T07:41:30;101310.59;;;6.93;100.00
8286;BME280;4181;43.416;24.598;2023-02-12T07:44:07;101305.47;;;7.05;100.00
8286;BME280;4181;43.416;24.598;2023-02-12T07:46:42;101312.91;;;7.30;100.00
8286;BME280;4181;43.416;24.598;2023-02-12T07:49:11;101311.44;;;7.28;100.00
8286;BME280;4181;43.416;24.598;2023-02-12T07:51:37;101304.13;;;7.28;100.00
8286;BME280;4181;43.416;24.598;2023-02-12T07:54:03;101299.56;;;7.29;100.00
8286;BME280;4181;43.416;24.598;2023-02-12T07:56:31;101310.22;;;7.37;100.00
8286;BME280;4181;43.416;24.598;2023-02-12T07:59:01;101297.41;;;7.71;100.00
8286;BME280;4181;43.416;24.598;2023-02-12T08:01:30;101292.88;;;7.98;100.00
8286;BME280;4181;43.416;24.598;2023-02-12T08:04:00;101275.56;;;8.19;100.00
8286;BME280;4181;43.416;24.598;2023-02-12T08:06:28;101290.22;;;8.50;100.00
8286;BME280;4181;43.416;24.598;2023-02-12T08:08:55;101284.81;;;8.44;100.00
8286;BME280;4181;43.416;24.598;2023-02-12T08:11:21;101290.44;;;8.36;100.00
8286;BME280;4181;43.416;24.598;2023-02-12T08:13:47;101299.84;;;8.40;100.00
8286;BME280;4181;43.416;24.598;2023-02-12T08:16:15;101300.06;;;8.38;100.00
8286;BME280;4181;43.416;24.598;2023-02-12T08:18:41;101290.25;;;8.24;100.00
8286;BME280;4181;43.416;24.598;2023-02-12T08:21:12;101307.19;;;8.33;100.00
8286;BME280;4181;43.416;24.598;2023-02-12T08:23:38;101309.50;;;8.36;100.00
8286;BME280;4181;43.416;24.598;2023-02-12T08:28:50;101304.88;;;8.75;100.00
8286;BME280;4181;43.416;24.598;2023-02-12T08:31:19;101304.00;;;8.88;100.00
8286;BME280;4181;43.416;24.598;2023-02-12T08:33:46;101292.84;;;9.16;100.00
8286;BME280;4181;43.416;24.598;2023-02-12T08:36:14;101307.25;;;9.36;100.00
8286;BME280;4181;43.416;24.598;2023-02-12T08:38:41;101316.22;;;9.43;100.00
8286;BME280;4181;43.416;24.598;2023-02-12T08:41:14;101295.75;;;9.27;100.00
8286;BME280;4181;43.416;24.598;2023-02-12T08:43:41;101309.41;;;9.65;100.00
8286;BME280;4181;43.416;24.598;2023-02-12T08:46:12;101273.13;;;9.71;100.00
8286;BME280;4181;43.416;24.598;2023-02-12T08:48:39;101298.78;;;9.94;100.00
8286;BME280;4181;43.416;24.598;2023-02-12T08:51:05;101294.59;;;10.54;100.00
8286;BME280;4181;43.416;24.598;2023-02-12T08:53:32;101285.81;;;10.95;100.00
8286;BME280;4181;43.416;24.598;2023-02-12T08:56:00;101285.63;;;11.14;100.00
8286;BME280;4181;43.416;24.598;2023-02-12T08:58:26;101290.91;;;11.09;100.00
8286;BME280;4181;43.416;24.598;2023-02-12T09:00:51;101304.34;;;10.93;100.00
8286;BME280;4181;43.416;24.598;2023-02-12T09:03:17;101312.44;;;10.81;100.00
8286;BME280;4181;43.416;24.598;2023-02-12T09:05:42;101301.72;;;10.80;100.00
8286;BME280;4181;43.416;24.598;2023-02-12T09:08:10;101303.56;;;11.04;100.00
8286;BME280;4181;43.416;24.598;2023-02-12T09:10:40;101303.03;;;11.13;100.00
8286;BME280;4181;43.416;24.598;2023-02-12T09:13:07;101304.25;;;10.99;100.00
8286;BME280;4181;43.416;24.598;2023-02-12T09:15:37;101322.81;;;10.91;100.00
8286;BME280;4181;43.416;24.598;2023-02-12T09:18:03;101330.97;;;10.73;100.00
8286;BME280;4181;43.416;24.598;2023-02-12T09:20:29;101355.25;;;10.56;100.00
8286;BME280;4181;43.416;24.598;2023-02-12T09:22:55;101357.56;;;10.28;100.00
8286;BME280;4181;43.416;24.598;2023-02-12T09:25:20;101350.41;;;10.27;100.00
8286;BME280;4181;43.416;24.598;2023-02-12T09:27:46;101372.53;;;10.12;100.00
8286;BME280;4181;43.416;24.598;2023-02-12T09:30:11;101363.06;;;9.71;100.00
8286;BME280;4181;43.416;24.598;2023-02-12T09:32:37;101367.47;;;9.65;100.00
8286;BME280;4181;43.416;24.598;2023-02-12T09:35:03;101377.81;;;9.44;100.00
8286;BME280;4181;43.416;24.598;2023-02-12T09:37:28;101369.06;;;9.29;100.00
8286;BME280;4181;43.416;24.598;2023-02-12T09:39:54;101395.03;;;9.38;100.00
8286;BME280;4181;43.416;24.598;2023-02-12T09:42:34;101409.66;;;9.43;100.00
8286;BME280;4181;43.416;24.598;2023-02-12T09:50:32;101416.19;;;9.42;100.00
8286;BME280;4181;43.416;24.598;2023-02-12T09:53:02;101412.59;;;9.42;100.00
8286;BME280;4181;43.416;24.598;2023-02-12T09:55:30;101418.06;;;9.35;100.00
8286;BME280;4181;43.416;24.598;2023-02-12T09:57:58;101389.13;;;9.47;100.00
8286;BME280;4181;43.416;24.598;2023-02-12T10:00:27;101383.72;;;9.98;100.00
8286;BME280;4181;43.416;24.598;2023-02-12T10:02:57;101390.97;;;10.48;100.00
8286;BME280;4181;43.416;24.598;2023-02-12T10:05:34;101376.13;;;10.93;100.00
8286;BME280;4181;43.416;24.598;2023-02-12T10:16:13;101376.13;;;11.79;100.00
8286;BME280;4181;43.416;24.598;2023-02-12T10:19:14;101360.16;;;12.23;100.00
8286;BME280;4181;43.416;24.598;2023-02-12T10:27:20;101363.53;;;12.37;100.00
8286;BME280;4181;43.416;24.598;2023-02-12T10:29:50;101361.94;;;12.18;100.00
8286;BME280;4181;43.416;24.598;2023-02-12T10:32:34;101376.41;;;11.89;100.00
8286;BME280;4181;43.416;24.598;2023-02-12T10:35:01;101390.53;;;11.49;100.00
8286;BME280;4181;43.416;24.598;2023-02-12T10:42:43;101406.84;;;10.89;100.00
8286;BME280;4181;43.416;24.598;2023-02-12T10:45:18;101401.50;;;10.76;100.00
8286;BME280;4181;43.416;24.598;2023-02-12T10:47:45;101396.00;;;10.82;100.00
8286;BME280;4181;43.416;24.598;2023-02-12T10:50:21;101392.28;;;11.01;100.00
8286;BME280;4181;43.416;24.598;2023-02-12T10:52:57;101401.91;;;10.79;100.00
8286;BME280;4181;43.416;24.598;2023-02-12T10:55:34;101398.00;;;10.93;100.00
8286;BME280;4181;43.416;24.598;2023-02-12T10:58:02;101389.91;;;10.80;100.00
8286;BME280;4181;43.416;24.598;2023-02-12T11:00:34;101400.44;;;10.77;100.00
8286;BME280;4181;43.416;24.598;2023-02-12T11:03:18;101394.00;;;10.71;100.00
8286;BME280;4181;43.416;24.598;2023-02-12T11:05:45;101399.84;;;10.75;100.00
8286;BME280;4181;43.416;24.598;2023-02-12T11:08:34;101407.75;;;10.83;100.00
8286;BME280;4181;43.416;24.598;2023-02-12T11:11:10;101405.09;;;10.76;100.00
8286;BME280;4181;43.416;24.598;2023-02-12T11:13:38;101409.75;;;10.69;100.00
8286;BME280;4181;43.416;24.598;2023-02-12T11:16:04;101404.16;;;10.58;100.00
8286;BME280;4181;43.416;24.598;2023-02-12T11:18:34;101414.81;;;10.66;100.00
8286;BME280;4181;43.416;24.598;2023-02-12T11:21:10;101403.50;;;10.62;100.00
8286;BME280;4181;43.416;24.598;2023-02-12T11:23:41;101406.56;;;10.72;100.00
8286;BME280;4181;43.416;24.598;2023-02-12T11:28:54;101424.84;;;10.41;100.00
8286;BME280;4181;43.416;24.598;2023-02-12T11:34:11;101438.81;;;10.06;100.00
8286;BME280;4181;43.416;24.598;2023-02-12T11:36:43;101437.84;;;9.94;100.00
8286;BME280;4181;43.416;24.598;2023-02-12T11:39:19;101427.94;;;10.00;100.00
8286;BME280;4181;43.416;24.598;2023-02-12T11:41:52;101439.66;;;10.07;100.00
8286;BME280;4181;43.416;24.598;2023-02-12T11:44:33;101423.78;;;9.97;100.00
8286;BME280;4181;43.416;24.598;2023-02-12T11:47:02;101440.50;;;10.07;100.00
8286;BME280;4181;43.416;24.598;2023-02-12T11:49:39;101421.84;;;10.04;100.00
8286;BME280;4181;43.416;24.598;2023-02-12T11:52:05;101431.28;;;10.08;100.00
8286;BME280;4181;43.416;24.598;2023-02-12T11:54:40;101431.47;;;10.07;100.00
8286;BME280;4181;43.416;24.598;2023-02-12T11:57:33;101438.53;;;9.70;100.00
8286;BME280;4181;43.416;24.598;2023-02-12T11:59:56;101443.13;;;9.70;100.00
8286;BME280;4181;43.416;24.598;2023-02-12T12:02:26;101432.03;;;9.78;100.00
8286;BME280;4181;43.416;24.598;2023-02-12T12:05:05;101437.19;;;9.99;100.00
8286;BME280;4181;43.416;24.598;2023-02-12T12:07:34;101433.41;;;9.93;100.00
8286;BME280;4181;43.416;24.598;2023-02-12T12:10:14;101436.81;;;9.82;100.00
8286;BME280;4181;43.416;24.598;2023-02-12T12:12:47;101430.44;;;9.44;100.00
8286;BME280;4181;43.416;24.598;2023-02-12T12:21:28;101444.84;;;9.64;100.00
8286;BME280;4181;43.416;24.598;2023-02-12T12:24:01;101458.28;;;9.53;100.00
8286;BME280;4181;43.416;24.598;2023-02-12T12:26:30;101454.75;;;9.33;100.00
8286;BME280;4181;43.416;24.598;2023-02-12T12:29:23;101466.25;;;9.48;100.00
8286;BME280;4181;43.416;24.598;2023-02-12T12:31:58;101470.88;;;9.41;100.00
8286;BME280;4181;43.416;24.598;2023-02-12T12:34:26;101471.50;;;9.49;100.00
8286;BME280;4181;43.416;24.598;2023-02-12T12:56:22;101491.63;;;9.16;100.00
8286;BME280;4181;43.416;24.598;2023-02-12T13:15:28;101525.50;;;8.80;100.00
8286;BME280;4181;43.416;24.598;2023-02-12T13:23:00;101542.91;;;8.92;100.00
8286;BME280;4181;43.416;24.598;2023-02-12T13:25:34;101536.19;;;8.82;100.00
8286;BME280;4181;43.416;24.598;2023-02-12T13:28:04;101538.25;;;8.73;100.00
8286;BME280;4181;43.416;24.598;2023-02-12T13:30:41;101554.06;;;8.50;100.00
8286;BME280;4181;43.416;24.598;2023-02-12T13:33:10;101560.81;;;8.61;100.00
8286;BME280;4181;43.416;24.598;2023-02-12T13:35:40;101550.31;;;8.51;100.00
8286;BME280;4181;43.416;24.598;2023-02-12T13:38:08;101555.28;;;8.41;100.00
8286;BME280;4181;43.416;24.598;2023-02-12T13:40:39;101549.47;;;8.44;100.00
8286;BME280;4181;43.416;24.598;2023-02-12T13:52:04;101571.41;;;8.43;100.00
8286;BME280;4181;43.416;24.598;2023-02-12T13:57:21;101589.66;;;8.21;100.00
8286;BME280;4181;43.416;24.598;2023-02-12T14:05:00;101618.25;;;8.11;100.00
8286;BME280;4181;43.416;24.598;2023-02-12T14:07:50;101596.56;;;8.17;100.00
8286;BME280;4181;43.416;24.598;2023-02-12T14:10:27;101604.72;;;8.17;100.00
8286;BME280;4181;43.416;24.598;2023-02-12T14:13:07;101586.78;;;7.95;100.00
8286;BME280;4181;43.416;24.598;2023-02-12T14:15:38;101602.28;;;8.01;100.00
8286;BME280;4181;43.416;24.598;2023-02-12T14:18:33;101617.41;;;8.10;100.00
8286;BME280;4181;43.416;24.598;2023-02-12T14:23:41;101634.38;;;8.12;100.00
8286;BME280;4181;43.416;24.598;2023-02-12T14:26:18;101599.94;;;7.92;100.00
8286;BME280;4181;43.416;24.598;2023-02-12T14:28:56;101631.16;;;8.02;100.00
8286;BME280;4181;43.416;24.598;2023-02-12T14:31:32;101641.22;;;8.08;100.00
8286;BME280;4181;43.416;24.598;2023-02-12T14:41:32;101648.75;;;8.06;100.00
8286;BME280;4181;43.416;24.598;2023-02-12T14:46:49;101647.84;;;7.93;100.00
8286;BME280;4181;43.416;24.598;2023-02-12T14:54:41;101644.88;;;7.88;100.00
8286;BME280;4181;43.416;24.598;2023-02-12T14:57:13;101646.47;;;7.82;100.00
8286;BME280;4181;43.416;24.598;2023-02-12T14:59:45;101646.38;;;7.69;100.00
8286;BME280;4181;43.416;24.598;2023-02-12T15:02:26;101657.69;;;7.72;100.00
8286;BME280;4181;43.416;24.598;2023-02-12T15:04:57;101662.09;;;7.52;100.00
8286;BME280;4181;43.416;24.598;2023-02-12T15:07:34;101673.91;;;7.45;100.00
8286;BME280;4181;43.416;24.598;2023-02-12T15:10:21;101671.72;;;7.34;100.00
8286;BME280;4181;43.416;24.598;2023-02-12T15:12:56;101680.44;;;6.94;100.00
8286;BME280;4181;43.416;24.598;2023-02-12T15:15:31;101683.00;;;7.16;100.00
8286;BME280;4181;43.416;24.598;2023-02-12T15:18:23;101682.19;;;7.16;100.00
8286;BME280;4181;43.416;24.598;2023-02-12T15:21:24;101686.31;;;7.12;100.00
8286;BME280;4181;43.416;24.598;2023-02-12T15:24:10;101691.66;;;7.05;100.00
8286;BME280;4181;43.416;24.598;2023-02-12T15:26:41;101687.75;;;6.93;100.00
8286;BME280;4181;43.416;24.598;2023-02-12T15:32:05;101723.50;;;6.82;100.00
8286;BME280;4181;43.416;24.598;2023-02-12T15:34:36;101717.13;;;6.90;100.00
8286;BME280;4181;43.416;24.598;2023-02-12T15:37:06;101710.31;;;6.65;100.00
8286;BME280;4181;43.416;24.598;2023-02-12T15:39:42;101718.63;;;6.92;100.00
8286;BME280;4181;43.416;24.598;2023-02-12T15:42:28;101720.38;;;7.00;100.00
8286;BME280;4181;43.416;24.598;2023-02-12T15:47:39;101728.34;;;7.01;100.00
8286;BME280;4181;43.416;24.598;2023-02-12T15:50:10;101739.03;;;6.88;100.00
8286;BME280;4181;43.416;24.598;2023-02-12T15:52:38;101718.47;;;6.79;100.00
8286;BME280;4181;43.416;24.598;2023-02-12T15:55:14;101737.25;;;6.81;100.00